Time;durP1;ratioP1;P1;durP2;ratioP2;P2;SDS_P1;SDS_P2;PMS_P1;PMS_P2;Temp;Humidity;BMP_temperature;BMP_pressure;BME280_temperature;BME280_humidity;BME280_pressure;Samples;Min_cycle;Max_cycle;Signal;HPM_P1;HPM_P2
2022/04/22 04:53:14;;;;;;;4.30;4.00;;;5.20;99.90;;;;;;5062633;23;20579;-65
2022/04/22 04:55:41;;;;;;;4.95;4.55;;;5.30;99.90;;;;;;4937994;29;20635;-64
2022/04/22 04:58:08;;;;;;;6.80;5.32;;;5.40;99.90;;;;;;4937726;29;20311;-67
2022/04/22 05:00:35;;;;;;;6.80;6.10;;;5.40;99.90;;;;;;4937330;29;20767;-65
2022/04/22 05:03:03;;;;;;;7.53;6.88;;;5.60;99.90;;;;;;4921959;29;20293;-66
2022/04/22 05:05:30;;;;;;;7.03;6.35;;;5.60;99.90;;;;;;4918597;29;20244;-66
2022/04/22 05:07:58;;;;;;;6.85;6.25;;;5.90;99.90;;;;;;4918243;29;20201;-66
2022/04/22 05:10:28;;;;;;;9.70;7.65;;;6.20;99.90;;;;;;4918147;29;20395;-66
2022/04/22 05:12:55;;;;;;;8.25;7.18;;;6.50;99.90;;;;;;4918377;29;20229;-67
2022/04/22 05:15:23;;;;;;;9.70;8.25;;;6.90;99.90;;;;;;4919761;29;20225;-62
2022/04/22 05:17:51;;;;;;;9.93;7.80;;;7.20;99.90;;;;;;4918113;29;20228;-62
2022/04/22 05:20:20;;;;;;;7.32;6.63;;;7.60;99.90;;;;;;4918146;29;20299;-62
2022/04/22 05:22:48;;;;;;;6.78;6.13;;;8.00;99.90;;;;;;4918075;29;20228;-63
2022/04/22 05:25:16;;;;;;;5.57;5.18;;;8.50;99.90;;;;;;4918357;29;20297;-62
2022/04/22 05:27:44;;;;;;;6.45;5.85;;;9.10;99.90;;;;;;4918444;29;20293;-62
2022/04/22 05:32:58;;;;;;;5.72;5.30;;;10.30;99.90;;;;;;4922336;29;20253;-62
2022/04/22 05:35:27;;;;;;;6.35;5.72;;;10.70;99.90;;;;;;4921792;29;20565;-62
2022/04/22 05:37:56;;;;;;;7.70;7.00;;;11.10;99.90;;;;;;4922156;29;20668;-62
2022/04/22 05:40:25;;;;;;;6.28;5.78;;;11.30;99.90;;;;;;4922549;29;20691;-62
2022/04/22 05:42:55;;;;;;;4.80;4.50;;;11.70;99.90;;;;;;4921428;29;20668;-62
2022/04/22 05:45:23;;;;;;;4.85;4.55;;;12.40;99.90;;;;;;4922837;29;20264;-63
2022/04/22 05:47:52;;;;;;;5.00;4.60;;;12.90;91.80;;;;;;4922386;29;20569;-63
2022/04/22 05:50:20;;;;;;;3.83;3.63;;;13.30;94.80;;;;;;4923084;29;20213;-63
2022/04/22 05:52:48;;;;;;;8.27;7.47;;;13.90;89.00;;;;;;4920177;29;20229;-63
2022/04/22 05:55:17;;;;;;;7.22;6.60;;;14.30;62.40;;;;;;4917391;29;20313;-63
2022/04/22 05:57:45;;;;;;;8.10;7.32;;;14.40;59.00;;;;;;4917769;29;20221;-63
2022/04/22 06:00:15;;;;;;;5.82;5.32;;;14.30;65.60;;;;;;4917455;29;20674;-63
2022/04/22 06:02:43;;;;;;;5.15;4.43;;;14.60;60.30;;;;;;4917646;29;20316;-63
2022/04/22 06:05:10;;;;;;;6.68;5.00;;;14.90;61.50;;;;;;4917805;29;20300;-63
2022/04/22 06:07:37;;;;;;;5.13;4.63;;;15.00;58.30;;;;;;4917957;29;20236;-63
2022/04/22 06:12:50;;;;;;;7.68;6.35;;;14.90;54.00;;;;;;4917355;29;20220;-63
2022/04/22 06:15:18;;;;;;;7.47;6.82;;;14.50;59.30;;;;;;4917376;29;20768;-63
2022/04/22 06:17:46;;;;;;;8.38;7.63;;;14.60;54.00;;;;;;4917539;29;20320;-63
2022/04/22 06:20:13;;;;;;;7.38;6.68;;;14.10;55.50;;;;;;4917697;29;20212;-63
2022/04/22 06:22:40;;;;;;;5.95;5.50;;;14.10;57.70;;;;;;4917047;29;20320;-62
2022/04/22 06:25:09;;;;;;;8.93;5.90;;;14.80;54.30;;;;;;4917418;29;20307;-63
2022/04/22 06:27:37;;;;;;;8.45;7.65;;;15.40;61.70;;;;;;4917570;29;20289;-62
2022/04/22 06:30:07;;;;;;;6.70;5.97;;;16.10;50.20;;;;;;4917496;29;20220;-62
2022/04/22 06:32:36;;;;;;;7.57;6.70;;;16.60;48.00;;;;;;4917089;29;20731;-62
2022/04/22 06:35:04;;;;;;;10.57;6.82;;;16.80;47.30;;;;;;4917277;29;20241;-62
2022/04/22 06:37:35;;;;;;;6.15;5.65;;;17.00;46.80;;;;;;4917285;29;20307;-64
2022/04/22 06:45:48;;;;;;;7.20;6.57;;;18.30;40.30;;;;;;4917174;29;20282;-65
2022/04/22 06:48:18;;;;;;;7.10;6.45;;;18.00;40.60;;;;;;4917790;29;20275;-64
2022/04/22 06:50:47;;;;;;;7.88;7.18;;;17.70;42.20;;;;;;4921532;29;20193;-68
2022/04/22 06:53:15;;;;;;;7.68;6.93;;;17.60;42.00;;;;;;4920907;29;20634;-67
2022/04/22 06:55:43;;;;;;;5.53;5.13;;;18.20;42.00;;;;;;4920637;29;20561;-67
2022/04/22 06:58:12;;;;;;;8.05;7.35;;;18.80;39.70;;;;;;4921034;29;20264;-64
2022/04/22 07:00:40;;;;;;;4.68;4.38;;;18.50;39.50;;;;;;4920990;29;20256;-64
2022/04/22 07:03:08;;;;;;;5.85;4.55;;;18.50;39.60;;;;;;4920914;29;20311;-64
2022/04/22 07:05:38;;;;;;;5.78;5.28;;;18.80;40.10;;;;;;4920841;29;20380;-64
2022/04/22 07:08:07;;;;;;;5.35;3.80;;;19.10;38.40;;;;;;4920619;29;20719;-64
2022/04/22 07:10:35;;;;;;;5.97;5.57;;;19.70;39.40;;;;;;4920655;29;20205;-64
2022/04/22 07:13:02;;;;;;;6.95;6.35;;;20.50;35.00;;;;;;4920432;29;20620;-64
2022/04/22 07:15:30;;;;;;;6.10;5.60;;;20.60;35.10;;;;;;4920597;29;20709;-65
2022/04/22 07:17:57;;;;;;;6.80;6.10;;;20.70;35.80;;;;;;4920307;29;20308;-64
2022/04/22 07:20:25;;;;;;;5.25;4.85;;;21.10;33.40;;;;;;4920612;29;20294;-65
2022/04/22 07:22:54;;;;;;;4.88;4.47;;;21.30;33.60;;;;;;4920495;29;20316;-64
2022/04/22 07:25:22;;;;;;;3.17;2.97;;;21.50;33.40;;;;;;4920249;29;20211;-65
2022/04/22 07:27:49;;;;;;;3.28;3.08;;;22.10;34.20;;;;;;4920245;29;20287;-65
2022/04/22 07:30:18;;;;;;;4.10;3.90;;;22.90;39.20;;;;;;4920600;29;20236;-66
2022/04/22 07:32:49;;;;;;;6.90;6.22;;;23.70;33.90;;;;;;4920345;29;20307;-66
2022/04/22 07:35:17;;;;;;;4.55;4.25;;;23.60;31.90;;;;;;4920444;29;20553;-66
2022/04/22 07:37:46;;;;;;;5.70;5.30;;;23.60;32.00;;;;;;4920006;29;20295;-66
2022/04/22 07:40:16;;;;;;;5.05;4.70;;;22.70;33.00;;;;;;4920313;29;20212;-65
2022/04/22 11:05:37;;;;;;;7.13;6.43;;;15.90;53.40;;;;;;5772269;23;20284;-67
2022/04/22 11:08:07;;;;;;;9.23;8.32;;;15.90;54.20;;;;;;4935854;29;20334;-67
2022/04/22 11:11:07;;;;;;;7.80;7.10;;;15.80;56.90;;;;;;4936124;29;20236;-67
2022/04/22 11:13:39;;;;;;;8.77;7.95;;;15.80;55.10;;;;;;4930919;29;20240;-67
2022/04/22 11:16:07;;;;;;;9.93;8.93;;;16.10;54.40;;;;;;4923540;29;20312;-66
2022/04/22 11:18:35;;;;;;;13.10;9.23;;;16.30;53.70;;;;;;4916807;29;20248;-67
2022/04/22 11:21:05;;;;;;;12.45;10.05;;;16.20;53.90;;;;;;4916683;29;20656;-67
2022/04/22 11:23:37;;;;;;;11.68;9.10;;;16.20;55.60;;;;;;4917116;29;20281;-66
2022/04/22 11:26:05;;;;;;;6.70;6.10;;;16.20;53.20;;;;;;4916581;29;20705;-66
2022/04/22 11:28:35;;;;;;;7.75;7.05;;;16.30;54.00;;;;;;4916553;29;20644;-66
2022/04/22 11:31:05;;;;;;;8.55;7.38;;;16.50;52.40;;;;;;4916641;29;20561;-66
2022/04/22 11:33:44;;;;;;;9.02;7.25;;;16.50;50.50;;;;;;4916896;29;20206;-66
2022/04/22 11:36:12;;;;;;;10.27;8.82;;;16.50;51.00;;;;;;4919975;29;20307;-66
2022/04/22 11:38:50;;;;;;;8.07;7.25;;;16.40;51.80;;;;;;4920226;29;20316;-66
2022/04/22 11:41:17;;;;;;;10.23;8.30;;;16.30;51.40;;;;;;4920141;29;20615;-66
2022/04/22 11:43:44;;;;;;;7.68;6.97;;;16.30;51.80;;;;;;4920020;29;20579;-66
2022/04/22 11:46:12;;;;;;;5.13;4.72;;;16.30;51.10;;;;;;4920205;29;20316;-66
2022/04/22 11:48:49;;;;;;;9.48;8.57;;;16.40;51.40;;;;;;4920171;29;20209;-66
2022/04/22 11:51:19;;;;;;;9.57;8.68;;;16.60;49.80;;;;;;4920282;29;20245;-66
2022/04/22 11:53:48;;;;;;;10.55;9.55;;;16.60;49.20;;;;;;4920630;29;20757;-66
2022/04/22 11:56:20;;;;;;;8.70;7.80;;;16.60;49.90;;;;;;4919944;29;20374;-66
2022/04/22 11:58:52;;;;;;;11.73;9.38;;;16.70;50.60;;;;;;4919849;29;20233;-66
2022/04/22 12:06:49;;;;;;;8.80;7.85;;;16.70;50.40;;;;;;4919727;29;20236;-66
2022/04/22 12:09:16;;;;;;;10.10;9.18;;;16.80;51.00;;;;;;4919579;29;20296;-67
2022/04/22 12:11:44;;;;;;;13.10;8.88;;;16.90;49.40;;;;;;4919583;29;20601;-66
2022/04/22 12:14:11;;;;;;;14.43;11.43;;;17.00;49.80;;;;;;4919689;29;20292;-66
2022/04/22 12:16:41;;;;;;;8.30;6.85;;;17.00;47.60;;;;;;4919401;29;20226;-67
2022/04/22 12:19:09;;;;;;;7.95;7.25;;;17.20;48.10;;;;;;4919378;29;20225;-66
2022/04/22 12:21:36;;;;;;;7.55;6.85;;;17.20;44.90;;;;;;4919922;29;20575;-66
2022/04/22 12:24:06;;;;;;;8.55;7.78;;;17.10;45.40;;;;;;4919516;29;20209;-67
2022/04/22 12:26:35;;;;;;;9.35;7.30;;;17.00;48.50;;;;;;4919831;29;20308;-66
2022/04/22 12:29:09;;;;;;;10.95;9.88;;;17.00;48.80;;;;;;4919549;29;20260;-66
2022/04/22 12:31:39;;;;;;;11.80;9.85;;;16.90;48.80;;;;;;4919406;29;20198;-66
2022/04/22 12:34:07;;;;;;;9.27;7.40;;;16.70;48.40;;;;;;4919206;29;20561;-66
2022/04/22 12:36:36;;;;;;;10.43;9.32;;;16.70;51.90;;;;;;4919542;29;20253;-66
2022/04/22 12:39:05;;;;;;;10.70;9.70;;;16.70;49.30;;;;;;4919229;29;20271;-66
2022/04/22 12:41:44;;;;;;;11.15;10.02;;;16.70;49.80;;;;;;4919335;29;20293;-67
2022/04/22 12:44:13;;;;;;;12.00;9.20;;;16.60;50.60;;;;;;4919289;29;20223;-66
2022/04/22 12:52:16;;;;;;;10.77;9.50;;;16.60;52.40;;;;;;4918943;29;20185;-67
2022/04/22 12:54:46;;;;;;;17.35;12.20;;;16.70;51.40;;;;;;4919377;29;20605;-67
2022/04/22 12:57:19;;;;;;;11.45;10.32;;;16.60;52.70;;;;;;4918704;29;20669;-67
2022/04/22 12:59:49;;;;;;;12.77;11.38;;;16.50;51.70;;;;;;4919071;29;20210;-66
2022/04/22 13:02:16;;;;;;;10.57;9.57;;;16.50;52.40;;;;;;4919038;29;20217;-66
2022/04/22 13:04:53;;;;;;;9.85;8.68;;;16.40;50.70;;;;;;4919107;29;20256;-66
2022/04/22 13:07:21;;;;;;;9.95;9.02;;;16.30;50.70;;;;;;4918909;29;20224;-66
2022/04/22 13:09:49;;;;;;;9.05;8.15;;;16.20;51.40;;;;;;4918840;29;20665;-67
2022/04/22 13:12:16;;;;;;;9.13;8.20;;;16.20;52.80;;;;;;4918684;29;20292;-68
2022/04/22 13:14:44;;;;;;;10.07;9.10;;;16.30;51.90;;;;;;4918505;29;20661;-66
2022/04/22 13:17:21;;;;;;;9.32;8.30;;;16.10;48.90;;;;;;4918932;29;20308;-67
2022/04/22 13:19:48;;;;;;;9.25;8.35;;;15.90;51.20;;;;;;4918880;29;20744;-67
2022/04/22 13:22:15;;;;;;;8.15;7.35;;;16.00;49.70;;;;;;4957871;23;20708;-65
2022/04/22 13:24:44;;;;;;;9.60;8.40;;;15.90;49.50;;;;;;4937385;29;20212;-65
2022/04/22 14:42:18;;;;;;;6.57;5.93;;;15.60;44.60;;;;;;5069773;23;20266;-66
2022/04/22 14:44:45;;;;;;;5.85;5.35;;;15.60;43.70;;;;;;4936331;29;20208;-65
2022/04/22 14:47:14;;;;;;;6.18;5.68;;;15.50;43.60;;;;;;4936399;29;20280;-65
2022/04/22 14:49:41;;;;;;;8.77;6.28;;;15.50;44.40;;;;;;4936235;29;20208;-65
2022/04/22 14:52:08;;;;;;;6.38;5.72;;;15.60;43.60;;;;;;4920780;29;20284;-65
2022/04/22 14:54:35;;;;;;;6.20;5.03;;;15.50;43.50;;;;;;4917188;29;20305;-65
2022/04/22 14:57:04;;;;;;;6.55;5.53;;;15.50;43.70;;;;;;4917172;29;20209;-65
2022/04/22 14:59:32;;;;;;;6.60;6.03;;;15.50;43.70;;;;;;4917112;29;20232;-65
2022/04/22 15:01:59;;;;;;;7.15;5.57;;;15.50;43.50;;;;;;4917329;29;20316;-65
2022/04/22 15:04:26;;;;;;;7.50;6.75;;;15.50;44.20;;;;;;4917160;29;20292;-65
2022/04/22 15:06:54;;;;;;;6.05;5.45;;;15.50;44.70;;;;;;4917169;29;20277;-65
2022/04/22 15:09:21;;;;;;;7.28;6.18;;;15.60;45.50;;;;;;4917669;29;20272;-65
2022/04/22 15:11:48;;;;;;;6.85;6.15;;;15.70;44.80;;;;;;4920819;29;20320;-65
2022/04/22 15:14:14;;;;;;;6.03;5.20;;;15.70;45.60;;;;;;4920913;29;20256;-65
2022/04/22 15:16:44;;;;;;;5.63;5.05;;;15.80;45.90;;;;;;4920582;29;20204;-65
2022/04/22 15:24:39;;;;;;;5.85;5.35;;;16.10;42.30;;;;;;4920977;29;20749;-65
2022/04/22 15:27:06;;;;;;;5.85;5.32;;;16.00;42.10;;;;;;4920892;29;20265;-65
2022/04/22 15:29:34;;;;;;;7.20;5.55;;;15.90;41.70;;;;;;4920987;29;20244;-64
2022/04/22 15:32:03;;;;;;;8.20;5.97;;;15.80;41.80;;;;;;4920308;29;20233;-64
2022/04/22 15:34:31;;;;;;;4.75;4.38;;;15.80;41.70;;;;;;4920388;29;20213;-65
2022/04/22 15:36:58;;;;;;;5.10;4.68;;;15.80;42.50;;;;;;4920394;29;20216;-65
2022/04/22 15:39:25;;;;;;;7.40;6.70;;;15.80;43.10;;;;;;4920077;29;20572;-64
2022/04/22 15:41:54;;;;;;;10.18;6.93;;;15.80;43.70;;;;;;4920424;29;20324;-65
2022/04/22 15:44:27;;;;;;;7.38;6.68;;;15.70;44.60;;;;;;4920417;29;20190;-64
2022/04/22 15:46:54;;;;;;;5.22;4.82;;;15.60;45.20;;;;;;4920225;29;20307;-64
2022/04/22 15:49:22;;;;;;;8.77;7.88;;;15.70;45.90;;;;;;4920243;29;20292;-65
2022/04/22 15:51:50;;;;;;;7.18;6.65;;;15.70;45.90;;;;;;4920034;29;20282;-64
2022/04/22 15:54:17;;;;;;;7.40;6.72;;;15.70;47.10;;;;;;4920233;29;20632;-64
2022/04/22 15:56:44;;;;;;;7.57;6.85;;;15.60;46.60;;;;;;4920025;29;20281;-65
2022/04/22 15:59:11;;;;;;;9.25;8.45;;;15.70;47.90;;;;;;4920037;29;20320;-64
2022/04/22 16:01:40;;;;;;;9.07;8.20;;;15.70;48.20;;;;;;4920239;29;20577;-64
2022/04/22 16:04:09;;;;;;;7.30;6.70;;;15.60;47.40;;;;;;4920372;29;20249;-64
2022/04/22 16:06:39;;;;;;;9.48;7.88;;;15.60;47.00;;;;;;4920176;29;20209;-64
2022/04/22 16:09:06;;;;;;;6.45;5.85;;;15.60;47.30;;;;;;4920022;29;20195;-65
2022/04/22 16:17:02;;;;;;;10.48;6.45;;;15.60;46.40;;;;;;4919607;29;20281;-65
2022/04/22 16:19:30;;;;;;;6.97;6.47;;;15.60;48.00;;;;;;4919511;29;20234;-65
2022/04/22 16:21:58;;;;;;;7.45;6.65;;;15.60;48.30;;;;;;4918107;29;20309;-65
2022/04/22 16:24:25;;;;;;;9.38;8.25;;;15.60;49.40;;;;;;4919493;29;20233;-65
2022/04/22 16:26:52;;;;;;;12.07;8.60;;;15.60;49.80;;;;;;4919363;29;20297;-65
2022/04/22 16:29:20;;;;;;;8.23;6.88;;;15.50;51.00;;;;;;4918062;29;20557;-65
2022/04/22 16:31:48;;;;;;;8.88;8.07;;;15.40;50.70;;;;;;4919838;29;20230;-65
2022/04/22 16:34:16;;;;;;;10.32;8.75;;;15.30;52.50;;;;;;4919261;29;20260;-65
2022/04/22 16:36:43;;;;;;;10.90;9.13;;;15.30;53.70;;;;;;4919236;29;20205;-65
2022/04/22 16:39:11;;;;;;;9.80;8.93;;;15.20;55.20;;;;;;4918654;29;20312;-65
2022/04/22 16:41:38;;;;;;;11.32;10.13;;;15.10;55.50;;;;;;4919132;29;20225;-64
2022/04/22 16:44:05;;;;;;;9.88;8.90;;;15.00;55.60;;;;;;4919379;29;20276;-65
2022/04/22 16:46:32;;;;;;;12.18;7.45;;;15.00;56.00;;;;;;4919068;29;20635;-65
2022/04/22 16:48:59;;;;;;;9.98;8.98;;;15.00;56.50;;;;;;4919102;29;20233;-65
2022/04/22 16:51:27;;;;;;;12.90;10.57;;;15.00;57.20;;;;;;4918807;29;20260;-65
2022/04/22 16:53:54;;;;;;;11.07;9.20;;;14.90;57.40;;;;;;4919553;29;20200;-66
2022/04/22 16:56:24;;;;;;;8.40;7.63;;;14.80;57.20;;;;;;4919077;29;20212;-65
2022/04/22 16:58:53;;;;;;;8.57;7.78;;;14.80;57.90;;;;;;4918682;29;20221;-65
2022/04/22 17:01:22;;;;;;;9.48;8.45;;;14.80;57.10;;;;;;4918989;29;20233;-65
2022/04/22 17:03:49;;;;;;;9.65;8.68;;;14.80;55.90;;;;;;4918364;29;20568;-65
2022/04/22 17:06:16;;;;;;;9.77;8.77;;;14.80;55.80;;;;;;4918570;29;20696;-65
2022/04/22 17:08:43;;;;;;;8.70;7.80;;;14.80;56.10;;;;;;4918512;29;20669;-65
2022/04/22 17:11:11;;;;;;;9.20;8.23;;;14.80;56.80;;;;;;4918540;29;20221;-65
2022/04/22 17:13:39;;;;;;;10.43;8.27;;;14.80;56.70;;;;;;4918970;29;20295;-65
2022/04/22 17:24:20;;;;;;;10.20;8.70;;;14.80;58.00;;;;;;4920290;29;20308;-70
2022/04/22 17:26:47;;;;;;;8.43;7.63;;;14.80;58.40;;;;;;4920676;29;20212;-68
2022/04/22 17:29:16;;;;;;;10.60;9.60;;;14.80;59.00;;;;;;4919814;29;20205;-68
2022/04/22 17:31:44;;;;;;;9.13;8.23;;;14.80;59.50;;;;;;4919753;29;20225;-68
2022/04/22 17:34:11;;;;;;;10.30;9.30;;;14.70;60.30;;;;;;4919411;29;20265;-67
2022/04/22 17:36:39;;;;;;;9.82;8.25;;;14.60;60.90;;;;;;4919301;29;20201;-68
2022/04/22 17:39:06;;;;;;;10.98;8.88;;;14.60;61.70;;;;;;4919435;29;20220;-64
2022/04/22 17:41:34;;;;;;;9.00;8.10;;;14.60;62.10;;;;;;4919327;29;20320;-65
2022/04/22 17:44:00;;;;;;;9.60;8.65;;;14.60;63.10;;;;;;4919616;29;20200;-65
2022/04/22 17:46:29;;;;;;;10.38;9.32;;;14.50;64.40;;;;;;4919309;29;20632;-65
2022/04/22 17:48:56;;;;;;;9.55;8.65;;;14.40;65.00;;;;;;4919136;29;20289;-65
2022/04/22 17:51:23;;;;;;;10.40;9.30;;;14.40;65.80;;;;;;4918434;29;20260;-66
2022/04/22 17:53:50;;;;;;;9.95;8.95;;;14.30;67.40;;;;;;4918324;29;20205;-66
2022/04/22 17:56:16;;;;;;;9.52;8.60;;;14.30;68.30;;;;;;4917930;29;20296;-66
2022/04/22 17:58:43;;;;;;;9.25;7.93;;;14.20;68.90;;;;;;4918060;29;20209;-66
2022/04/22 18:01:10;;;;;;;11.10;9.32;;;14.20;70.20;;;;;;4917820;29;20229;-66
2022/04/22 18:03:39;;;;;;;9.55;8.60;;;14.10;71.70;;;;;;4917629;29;20278;-65
2022/04/22 18:06:05;;;;;;;8.77;7.93;;;14.00;72.90;;;;;;4917888;29;20213;-66
2022/04/22 18:08:32;;;;;;;9.90;8.65;;;14.00;73.10;;;;;;4918099;29;20270;-66
2022/04/22 18:10:59;;;;;;;10.65;7.75;;;13.90;74.30;;;;;;4917534;29;20259;-67
2022/04/22 18:13:26;;;;;;;8.07;7.28;;;13.90;74.50;;;;;;4917966;29;20209;-66
2022/04/22 18:18:40;;;;;;;6.03;5.53;;;13.70;78.90;;;;;;4917891;29;20188;-65
2022/04/22 18:21:07;;;;;;;4.70;4.40;;;13.60;79.30;;;;;;4917915;29;20280;-65
2022/04/22 18:23:34;;;;;;;3.90;3.70;;;13.50;80.40;;;;;;4917713;29;20245;-66
2022/04/22 18:26:03;;;;;;;3.25;3.05;;;13.30;81.80;;;;;;4917475;29;20683;-66
2022/04/22 18:28:30;;;;;;;2.60;2.50;;;13.20;84.50;;;;;;4917366;29;20554;-66
2022/04/22 18:30:57;;;;;;;2.47;2.38;;;13.00;87.00;;;;;;4917181;29;20313;-66
2022/04/22 18:33:23;;;;;;;2.30;2.20;;;12.90;90.10;;;;;;4917480;29;20648;-66
2022/04/22 18:35:52;;;;;;;2.55;2.45;;;12.60;92.40;;;;;;4917922;29;20244;-66
2022/04/22 18:38:20;;;;;;;2.17;2.08;;;12.50;93.90;;;;;;4917197;29;20664;-66
2022/04/22 18:40:47;;;;;;;2.10;2.10;;;12.30;96.90;;;;;;4916971;29;20595;-66
2022/04/22 18:43:15;;;;;;;2.42;2.33;;;12.20;99.10;;;;;;4916908;29;20266;-65
2022/04/22 18:45:42;;;;;;;2.25;2.15;;;12.00;99.90;;;;;;4916236;29;20215;-65
2022/04/22 18:48:09;;;;;;;2.45;2.35;;;11.90;99.90;;;;;;4917322;29;20300;-66
2022/04/22 18:50:37;;;;;;;2.53;2.42;;;11.80;99.90;;;;;;4916897;29;20605;-65
2022/04/22 18:53:07;;;;;;;2.58;2.47;;;11.70;99.90;;;;;;4917353;29;20209;-66
2022/04/22 18:55:34;;;;;;;1.75;1.75;;;11.50;99.90;;;;;;4917226;29;20296;-65
2022/04/22 18:58:01;;;;;;;2.53;2.33;;;11.40;99.90;;;;;;4917160;29;20728;-65
2022/04/22 19:00:28;;;;;;;2.63;2.53;;;11.30;99.90;;;;;;4917382;29;20263;-65
2022/04/22 19:03:10;;;;;;;2.72;2.53;;;11.20;99.90;;;;;;4917495;29;20300;-66
2022/04/22 19:05:37;;;;;;;2.40;2.30;;;11.10;99.90;;;;;;4917415;29;20221;-64
2022/04/22 19:08:06;;;;;;;2.10;2.00;;;11.00;99.90;;;;;;4917448;29;20292;-65
2022/04/22 19:10:33;;;;;;;3.45;3.25;;;10.90;99.90;;;;;;4917001;29;20658;-66
2022/04/22 19:13:00;;;;;;;2.90;2.67;;;10.80;99.90;;;;;;4917564;29;20205;-66
2022/04/22 19:15:29;;;;;;;3.20;3.00;;;10.70;99.90;;;;;;4917416;29;20216;-67
2022/04/22 19:17:56;;;;;;;3.00;2.90;;;10.60;99.90;;;;;;4917365;29;20300;-67
2022/04/22 19:20:24;;;;;;;3.03;2.83;;;10.60;99.90;;;;;;4917135;29;20231;-66
2022/04/22 19:22:51;;;;;;;2.78;2.67;;;10.50;99.90;;;;;;4917259;29;20209;-66
2022/04/22 19:25:21;;;;;;;2.85;2.70;;;10.40;99.90;;;;;;4917450;29;20296;-66
2022/04/22 19:27:48;;;;;;;3.08;2.78;;;10.30;99.90;;;;;;4916938;29;20218;-66
2022/04/22 19:30:14;;;;;;;2.40;2.30;;;10.20;99.90;;;;;;4917018;29;20292;-67
2022/04/22 19:32:41;;;;;;;2.47;2.38;;;10.20;99.90;;;;;;4916803;29;20243;-66
2022/04/22 19:35:09;;;;;;;2.58;2.47;;;10.10;99.90;;;;;;4917296;29;20292;-67
2022/04/22 19:43:10;;;;;;;2.70;2.50;;;9.90;99.90;;;;;;4917068;29;20220;-67
2022/04/22 19:45:37;;;;;;;2.40;2.20;;;9.90;99.90;;;;;;4916833;29;20244;-66
2022/04/22 19:48:07;;;;;;;2.42;2.33;;;9.80;99.90;;;;;;4917161;29;20344;-66
2022/04/22 19:50:34;;;;;;;2.40;2.30;;;9.80;99.90;;;;;;4917170;29;20309;-67
2022/04/22 19:53:01;;;;;;;2.70;2.60;;;9.70;99.90;;;;;;4917318;29;20292;-67
2022/04/22 19:55:29;;;;;;;1.73;1.73;;;9.60;99.90;;;;;;4917969;29;20210;-67
2022/04/22 19:57:56;;;;;;;2.00;2.00;;;9.60;99.90;;;;;;4920692;29;20308;-67
2022/04/22 20:00:23;;;;;;;2.22;2.13;;;9.50;99.90;;;;;;4920262;29;20319;-68
2022/04/22 20:02:51;;;;;;;2.28;2.17;;;9.50;99.90;;;;;;4920282;29;20205;-67
2022/04/22 20:05:18;;;;;;;2.17;2.08;;;9.40;99.90;;;;;;4920964;29;20209;-66
2022/04/22 20:07:45;;;;;;;2.50;2.40;;;9.40;99.90;;;;;;4920453;29;20244;-66
2022/04/22 20:10:13;;;;;;;2.25;2.15;;;9.30;99.90;;;;;;4920151;29;20296;-68
2022/04/22 20:12:41;;;;;;;2.70;2.60;;;9.30;99.90;;;;;;4919993;29;20213;-67
2022/04/22 20:15:09;;;;;;;2.13;2.03;;;9.20;99.90;;;;;;4920029;29;20237;-68
2022/04/22 20:17:36;;;;;;;2.75;2.13;;;9.20;99.90;;;;;;4920237;29;20255;-67
2022/04/22 20:20:04;;;;;;;2.20;2.10;;;9.10;99.90;;;;;;4919874;29;20256;-67
2022/04/22 20:22:31;;;;;;;2.95;2.85;;;9.10;99.90;;;;;;4919554;29;20226;-67
2022/04/22 20:24:58;;;;;;;2.35;2.30;;;9.10;99.90;;;;;;4919637;29;20635;-66
2022/04/22 20:27:25;;;;;;;2.10;2.10;;;9.00;99.90;;;;;;4919666;29;20288;-67
2022/04/22 20:29:54;;;;;;;2.40;2.30;;;8.90;99.90;;;;;;4919718;29;20212;-67
2022/04/22 20:32:21;;;;;;;1.90;1.90;;;8.90;99.90;;;;;;4919607;29;20338;-66
2022/04/22 20:43:00;;;;;;;2.42;2.13;;;8.60;99.90;;;;;;4919553;29;20260;-67
2022/04/22 20:45:32;;;;;;;2.28;2.17;;;8.60;99.90;;;;;;4919761;29;20233;-66
2022/04/22 20:47:58;;;;;;;1.85;1.77;;;8.60;99.90;;;;;;4919819;29;20205;-66
2022/04/22 20:50:27;;;;;;;2.10;2.10;;;8.50;99.90;;;;;;4919533;29;20272;-67
2022/04/22 20:55:38;;;;;;;2.08;1.98;;;8.40;99.90;;;;;;4919455;29;20192;-66
2022/04/22 20:58:05;;;;;;;2.22;2.13;;;8.30;99.90;;;;;;4918886;29;20748;-66
2022/04/22 21:00:34;;;;;;;2.10;2.10;;;8.30;99.90;;;;;;4918842;29;20225;-67
2022/04/22 21:03:01;;;;;;;2.28;2.17;;;8.30;99.90;;;;;;4919377;29;20256;-65
2022/04/22 21:05:28;;;;;;;2.40;2.30;;;8.20;99.90;;;;;;4919130;29;20201;-67
2022/04/22 21:07:55;;;;;;;2.00;1.95;;;8.10;99.90;;;;;;4918007;29;20302;-67
2022/04/22 21:10:25;;;;;;;2.97;2.88;;;8.10;99.90;;;;;;4918917;29;20245;-66
2022/04/22 21:12:53;;;;;;;2.72;2.63;;;8.10;99.90;;;;;;4918712;29;20268;-67
2022/04/22 21:15:21;;;;;;;2.92;2.83;;;8.00;99.90;;;;;;4919337;29;20213;-66
2022/04/22 21:17:49;;;;;;;3.22;3.05;;;7.90;99.90;;;;;;4918752;29;20681;-67
2022/04/22 21:20:17;;;;;;;3.50;3.20;;;7.90;99.90;;;;;;4918580;29;20206;-67
2022/04/22 21:22:44;;;;;;;3.00;2.90;;;7.80;99.90;;;;;;4918666;29;20755;-66
2022/04/22 21:25:12;;;;;;;2.80;2.70;;;7.80;99.90;;;;;;4918757;29;20213;-66
2022/04/22 21:27:40;;;;;;;3.40;3.08;;;7.80;99.90;;;;;;4918683;29;20753;-67
2022/04/22 21:30:08;;;;;;;3.30;3.10;;;7.70;99.90;;;;;;4918572;29;20201;-66
2022/04/22 21:32:36;;;;;;;2.78;2.67;;;7.70;99.90;;;;;;4919028;29;20304;-66
2022/04/22 21:35:06;;;;;;;2.53;2.42;;;7.70;99.90;;;;;;4918641;29;20216;-67
2022/04/22 21:37:33;;;;;;;2.97;2.78;;;7.60;99.90;;;;;;4918081;29;20712;-66
2022/04/22 21:40:00;;;;;;;2.78;2.60;;;7.60;99.90;;;;;;4918107;29;20216;-66
2022/04/22 21:42:27;;;;;;;2.95;2.85;;;7.60;99.90;;;;;;4917843;29;20697;-66
2022/04/22 21:44:57;;;;;;;3.22;3.03;;;7.60;99.90;;;;;;4918472;29;20248;-66
2022/04/22 21:47:24;;;;;;;3.47;3.28;;;7.50;99.90;;;;;;4918640;29;20280;-67
2022/04/22 21:49:51;;;;;;;2.95;2.83;;;7.50;99.90;;;;;;4918314;29;20205;-66
2022/04/22 21:52:19;;;;;;;3.10;2.90;;;7.50;99.90;;;;;;4918162;29;20390;-67
2022/04/22 21:54:47;;;;;;;3.88;3.58;;;7.50;99.90;;;;;;4918186;29;20288;-67
2022/04/22 21:57:15;;;;;;;3.15;2.97;;;7.50;99.90;;;;;;4918202;29;20205;-67
2022/04/22 21:59:43;;;;;;;3.28;3.08;;;7.40;99.90;;;;;;4918226;29;20209;-67
2022/04/22 22:02:10;;;;;;;3.17;3.05;;;7.40;99.90;;;;;;4917874;29;20229;-67
2022/04/22 22:04:37;;;;;;;3.13;2.92;;;7.40;99.90;;;;;;4917954;29;20296;-66
2022/04/22 22:07:05;;;;;;;2.90;2.70;;;7.40;99.90;;;;;;4917680;29;20358;-65
2022/04/22 22:09:33;;;;;;;3.42;3.22;;;7.30;99.90;;;;;;4917937;29;20284;-67
2022/04/22 22:12:00;;;;;;;3.42;3.20;;;7.30;99.90;;;;;;4917687;29;20656;-67
2022/04/22 22:14:27;;;;;;;3.45;3.25;;;7.30;99.90;;;;;;4917592;29;20665;-67
2022/04/22 22:16:54;;;;;;;2.95;2.85;;;7.30;99.90;;;;;;4917574;29;20209;-67
2022/04/22 22:19:22;;;;;;;3.30;3.10;;;7.30;99.90;;;;;;4917514;29;20216;-67
2022/04/22 22:21:48;;;;;;;2.90;2.80;;;7.20;99.90;;;;;;4917564;29;20225;-66
2022/04/22 22:24:15;;;;;;;2.78;2.65;;;7.20;99.90;;;;;;4917346;29;20292;-66
2022/04/22 22:26:44;;;;;;;2.40;2.30;;;7.20;99.90;;;;;;4917351;29;20296;-67
2022/04/22 22:29:11;;;;;;;2.30;2.20;;;7.20;99.90;;;;;;4917626;29;20206;-67
2022/04/22 22:31:39;;;;;;;2.47;2.38;;;7.20;99.90;;;;;;4917554;29;20225;-65
2022/04/22 22:34:06;;;;;;;3.10;2.95;;;7.20;99.90;;;;;;4917540;29;20312;-67
2022/04/22 22:36:33;;;;;;;2.40;2.30;;;7.20;99.90;;;;;;4917725;29;20323;-66
2022/04/22 22:39:00;;;;;;;2.80;2.70;;;7.20;99.90;;;;;;4917548;29;20292;-66
2022/04/22 22:41:28;;;;;;;2.58;2.47;;;7.20;99.90;;;;;;4916923;29;20225;-67
2022/04/22 22:43:56;;;;;;;2.60;2.50;;;7.10;99.90;;;;;;4916405;29;20208;-67
2022/04/22 22:46:27;;;;;;;2.70;2.60;;;7.10;99.90;;;;;;4917328;29;20291;-67
2022/04/22 22:48:54;;;;;;;3.45;3.15;;;7.00;99.90;;;;;;4917000;29;20204;-67
2022/04/22 22:51:20;;;;;;;3.00;2.90;;;7.00;99.90;;;;;;4916719;29;20316;-67
2022/04/22 22:53:48;;;;;;;3.35;3.15;;;7.00;99.90;;;;;;4916792;29;20308;-68
2022/04/22 22:56:15;;;;;;;3.15;3.05;;;7.00;99.90;;;;;;4916294;29;20212;-67
2022/04/22 22:58:42;;;;;;;3.53;3.33;;;6.90;99.90;;;;;;4916525;29;20206;-68
2022/04/22 23:01:11;;;;;;;3.00;2.90;;;6.90;99.90;;;;;;4916519;29;20320;-68
2022/04/22 23:03:38;;;;;;;3.35;3.15;;;6.80;99.90;;;;;;4917089;29;20270;-67
2022/04/22 23:06:05;;;;;;;3.25;3.05;;;6.80;99.90;;;;;;4916936;29;20205;-67
2022/04/22 23:08:32;;;;;;;3.33;3.13;;;6.70;99.90;;;;;;4917103;29;20232;-67
2022/04/22 23:10:59;;;;;;;3.65;3.28;;;6.70;99.90;;;;;;4916466;29;20220;-67
2022/04/22 23:13:27;;;;;;;3.28;3.08;;;6.60;99.90;;;;;;4916567;29;20212;-68
2022/04/22 23:15:54;;;;;;;2.88;2.75;;;6.60;99.90;;;;;;4916472;29;20209;-67
2022/04/22 23:18:23;;;;;;;3.65;3.00;;;6.60;99.90;;;;;;4916533;29;20293;-67
2022/04/22 23:20:50;;;;;;;2.35;2.25;;;6.50;99.90;;;;;;4916521;29;20222;-67
2022/04/22 23:23:17;;;;;;;3.33;3.13;;;6.50;99.90;;;;;;4916310;29;20592;-68